Time;durP1;ratioP1;P1;durP2;ratioP2;P2;SDS_P1;SDS_P2;PMS_P1;PMS_P2;Temp;Humidity;BMP_temperature;BMP_pressure;BME280_temperature;BME280_humidity;BME280_pressure;Samples;Min_cycle;Max_cycle;Signal;HPM_P1;HPM_P2
2021/03/16 00:02:16;;;;;;;7.47;4.20;;;4.10;97.30;;;;;;5072393;28;20413;-86
2021/03/16 00:04:42;;;;;;;15.87;4.63;;;4.10;97.30;;;;;;5072357;28;20194;-87
2021/03/16 00:07:08;;;;;;;13.67;4.37;;;4.10;97.30;;;;;;5072408;28;20191;-87
2021/03/16 00:09:34;;;;;;;12.77;4.77;;;4.10;97.30;;;;;;5071859;28;20579;-85
2021/03/16 00:12:00;;;;;;;10.00;3.87;;;4.10;97.30;;;;;;5071918;28;20417;-86
2021/03/16 00:14:25;;;;;;;10.73;3.93;;;4.10;97.30;;;;;;5072496;28;20455;-86
2021/03/16 00:16:51;;;;;;;15.33;4.30;;;4.10;97.30;;;;;;5072274;28;20671;-86
2021/03/16 00:19:20;;;;;;;7.20;3.70;;;4.10;97.30;;;;;;5072175;28;20200;-86
2021/03/16 00:21:46;;;;;;;9.13;4.17;;;4.10;97.30;;;;;;5071818;28;20175;-86
2021/03/16 00:24:12;;;;;;;9.70;4.33;;;4.10;97.30;;;;;;5071965;28;20539;-86
2021/03/16 00:26:38;;;;;;;9.07;4.93;;;4.10;97.30;;;;;;5071989;28;20183;-86
2021/03/16 00:29:04;;;;;;;11.90;4.00;;;4.10;97.30;;;;;;5088671;22;20234;-81
2021/03/16 00:31:29;;;;;;;11.33;4.03;;;4.10;97.30;;;;;;5039977;28;20164;-81
2021/03/16 00:33:55;;;;;;;13.00;4.80;;;4.10;97.30;;;;;;5039045;28;20406;-81
2021/03/16 00:36:21;;;;;;;6.50;3.80;;;4.10;97.30;;;;;;5040752;28;20295;-82
2021/03/16 00:38:46;;;;;;;10.10;4.40;;;4.10;97.30;;;;;;5045014;28;20231;-82
2021/03/16 00:41:12;;;;;;;14.90;4.83;;;4.20;97.30;;;;;;5043668;28;20176;-81
2021/03/16 00:43:38;;;;;;;7.20;4.20;;;4.20;97.30;;;;;;5042764;28;20208;-81
2021/03/16 00:46:03;;;;;;;13.90;4.20;;;4.20;97.30;;;;;;5042299;28;20252;-81
2021/03/16 00:48:29;;;;;;;10.90;4.37;;;4.10;97.30;;;;;;5044842;28;20179;-81
2021/03/16 00:50:55;;;;;;;12.53;4.80;;;4.10;97.30;;;;;;5043134;28;20271;-81
2021/03/16 00:53:21;;;;;;;14.63;4.20;;;4.10;97.30;;;;;;5044157;28;20176;-82
2021/03/16 00:55:47;;;;;;;7.33;5.00;;;4.10;97.30;;;;;;5039526;28;20479;-81
2021/03/16 00:58:12;;;;;;;8.40;4.13;;;4.10;97.30;;;;;;5041034;28;20204;-81
2021/03/16 01:00:38;;;;;;;14.83;4.60;;;4.10;97.30;;;;;;5041197;28;20204;-81
2021/03/16 01:03:04;;;;;;;13.97;4.60;;;4.10;97.30;;;;;;5040950;28;20423;-82
2021/03/16 01:05:30;;;;;;;9.40;4.07;;;4.00;97.30;;;;;;5039919;28;20176;-81
2021/03/16 01:07:58;;;;;;;13.87;4.27;;;4.00;97.30;;;;;;5038382;28;20645;-83
2021/03/16 01:10:24;;;;;;;15.40;4.87;;;4.00;97.30;;;;;;5028946;28;20672;-82
2021/03/16 01:12:50;;;;;;;8.77;4.53;;;4.10;97.30;;;;;;5039432;28;20419;-82
2021/03/16 01:15:16;;;;;;;13.10;4.90;;;4.10;97.30;;;;;;5038994;28;20430;-82
2021/03/16 01:17:42;;;;;;;9.77;4.87;;;4.10;97.30;;;;;;5039379;28;20212;-82
2021/03/16 01:20:12;;;;;;;6.90;3.93;;;4.00;97.30;;;;;;5041562;28;20204;-82
2021/03/16 01:22:37;;;;;;;9.47;4.23;;;4.10;97.30;;;;;;5041336;28;20443;-82
2021/03/16 01:25:04;;;;;;;12.13;4.23;;;4.10;97.30;;;;;;5041221;28;20541;-82
2021/03/16 01:27:30;;;;;;;7.83;4.37;;;4.10;97.30;;;;;;5041065;28;20180;-82
2021/03/16 01:29:56;;;;;;;9.53;4.17;;;4.10;97.30;;;;;;5039987;28;21019;-82
2021/03/16 01:32:21;;;;;;;7.97;4.50;;;4.10;97.30;;;;;;5040426;28;20223;-82
2021/03/16 01:34:47;;;;;;;17.00;3.60;;;4.10;97.30;;;;;;5041601;28;20181;-82
2021/03/16 01:37:12;;;;;;;14.33;3.73;;;4.10;97.30;;;;;;5041551;28;20216;-82
2021/03/16 01:39:38;;;;;;;8.77;3.20;;;4.10;97.30;;;;;;5042184;28;20203;-82
2021/03/16 01:42:04;;;;;;;10.87;4.23;;;4.10;97.30;;;;;;5039475;28;20183;-82
2021/03/16 01:44:29;;;;;;;7.00;2.97;;;4.20;97.30;;;;;;5041236;28;20183;-81
2021/03/16 01:46:55;;;;;;;8.07;3.47;;;4.20;97.30;;;;;;5042146;28;20587;-81
2021/03/16 01:49:21;;;;;;;15.53;3.43;;;4.10;97.30;;;;;;5042025;28;20277;-83
2021/03/16 01:51:46;;;;;;;5.53;3.00;;;4.10;97.30;;;;;;5040900;28;20180;-82
2021/03/16 01:54:13;;;;;;;8.93;3.80;;;4.20;97.30;;;;;;5041795;28;20450;-81
2021/03/16 01:56:41;;;;;;;9.60;3.10;;;4.10;97.30;;;;;;5039603;28;20200;-82
2021/03/16 01:59:07;;;;;;;6.40;3.50;;;4.10;97.30;;;;;;5039713;28;20450;-82
2021/03/16 02:01:33;;;;;;;8.53;3.23;;;4.10;97.30;;;;;;5042200;28;20430;-81
2021/03/16 02:03:58;;;;;;;7.93;3.47;;;4.10;97.30;;;;;;5039970;28;20423;-81
2021/03/16 02:06:41;;;;;;;13.50;4.00;;;4.10;97.30;;;;;;5042585;28;20208;-81
2021/03/16 02:09:15;;;;;;;6.73;3.53;;;4.10;97.30;;;;;;5041874;28;20227;-82
2021/03/16 02:12:01;;;;;;;6.97;2.87;;;4.10;97.30;;;;;;5041039;28;20415;-82
2021/03/16 02:14:31;;;;;;;5.73;2.67;;;4.10;97.30;;;;;;5041710;28;20419;-83
2021/03/16 02:17:10;;;;;;;11.13;4.20;;;4.10;97.30;;;;;;5041102;28;20605;-81
2021/03/16 02:20:02;;;;;;;5.50;3.40;;;4.10;97.30;;;;;;5040009;28;20485;-82
2021/03/16 02:22:31;;;;;;;13.83;4.27;;;4.10;97.30;;;;;;5041588;28;20407;-83
2021/03/16 02:25:11;;;;;;;5.07;3.27;;;4.10;97.30;;;;;;5041401;28;20772;-82
2021/03/16 02:28:09;;;;;;;5.93;3.20;;;4.10;97.30;;;;;;5041269;28;20791;-82
2021/03/16 02:30:39;;;;;;;14.33;4.00;;;4.10;97.30;;;;;;5041259;28;20481;-82
2021/03/16 02:33:09;;;;;;;7.40;3.37;;;4.10;97.30;;;;;;5040284;28;20408;-81
2021/03/16 02:35:36;;;;;;;7.60;2.80;;;4.00;97.30;;;;;;5039565;28;20915;-82
2021/03/16 02:38:04;;;;;;;4.53;3.20;;;4.10;97.30;;;;;;5039260;28;20465;-83
2021/03/16 02:40:32;;;;;;;5.53;3.10;;;4.00;97.30;;;;;;5041373;28;20485;-81
2021/03/16 02:42:58;;;;;;;4.60;3.80;;;4.00;97.30;;;;;;5038780;28;20427;-82
2021/03/16 02:45:25;;;;;;;5.57;3.30;;;4.00;97.30;;;;;;5040852;28;20792;-83
2021/03/16 02:47:50;;;;;;;5.50;3.33;;;4.00;97.30;;;;;;5039225;28;20424;-82
2021/03/16 02:50:17;;;;;;;8.70;3.77;;;4.00;97.30;;;;;;5039859;28;20447;-82
2021/03/16 02:52:44;;;;;;;6.47;3.27;;;4.00;97.30;;;;;;5037812;28;20271;-81
2021/03/16 02:55:11;;;;;;;7.10;4.17;;;4.00;97.30;;;;;;5040398;28;20435;-81
2021/03/16 02:57:38;;;;;;;10.37;4.33;;;4.00;97.30;;;;;;5038699;28;20457;-82
2021/03/16 03:00:05;;;;;;;6.70;3.93;;;4.00;97.30;;;;;;5038343;28;20443;-81
2021/03/16 03:02:33;;;;;;;13.00;3.80;;;3.90;97.30;;;;;;5039120;28;20415;-82
2021/03/16 03:04:59;;;;;;;6.03;4.37;;;3.90;97.30;;;;;;5037840;28;20413;-82
2021/03/16 03:07:26;;;;;;;6.43;3.53;;;3.90;97.30;;;;;;5037678;28;20811;-82
2021/03/16 03:09:52;;;;;;;7.67;3.17;;;3.90;97.30;;;;;;5039559;28;20832;-82
2021/03/16 03:12:18;;;;;;;5.50;3.73;;;3.90;97.30;;;;;;5037668;28;20412;-83
2021/03/16 03:14:44;;;;;;;9.10;3.70;;;3.90;97.30;;;;;;5039164;28;20419;-81
2021/03/16 03:17:10;;;;;;;11.80;3.97;;;3.90;97.30;;;;;;5041163;28;20519;-82
2021/03/16 03:19:35;;;;;;;6.03;3.60;;;3.90;97.30;;;;;;5039822;28;20734;-82
2021/03/16 03:22:36;;;;;;;10.90;3.50;;;4.00;97.30;;;;;;5039988;28;20521;-82
2021/03/16 03:25:07;;;;;;;9.20;4.00;;;4.00;97.30;;;;;;5028818;28;20191;-82
2021/03/16 03:27:38;;;;;;;7.07;4.10;;;4.00;97.30;;;;;;5039769;28;20410;-83
2021/03/16 03:30:06;;;;;;;7.57;3.90;;;3.90;97.30;;;;;;5039931;28;20467;-82
2021/03/16 03:32:33;;;;;;;9.43;4.00;;;3.90;97.30;;;;;;5039564;28;20453;-82
2021/03/16 03:35:00;;;;;;;8.40;4.40;;;3.90;97.30;;;;;;5040631;28;20485;-82
2021/03/16 03:37:27;;;;;;;8.03;4.60;;;3.90;97.30;;;;;;5039164;28;20550;-82
2021/03/16 03:39:54;;;;;;;7.53;4.07;;;3.80;97.30;;;;;;5038364;28;20441;-82
2021/03/16 03:42:20;;;;;;;7.50;4.50;;;3.80;97.30;;;;;;5039532;28;20429;-82
2021/03/16 03:44:48;;;;;;;6.37;3.37;;;3.80;97.30;;;;;;5037817;28;20453;-83
2021/03/16 03:47:18;;;;;;;11.80;4.20;;;3.80;97.30;;;;;;5040089;28;20510;-81
2021/03/16 03:49:45;;;;;;;8.10;4.97;;;3.80;97.30;;;;;;5039911;28;20436;-82
2021/03/16 03:52:13;;;;;;;9.03;4.70;;;3.80;97.30;;;;;;5039351;28;20423;-82
2021/03/16 03:54:43;;;;;;;10.80;4.60;;;3.70;97.30;;;;;;5040202;28;20710;-82
2021/03/16 03:57:10;;;;;;;9.37;4.60;;;3.70;97.30;;;;;;5040685;28;20458;-82
2021/03/16 03:59:40;;;;;;;7.83;3.60;;;3.60;97.30;;;;;;5039540;28;20427;-81
2021/03/16 04:02:06;;;;;;;9.07;3.83;;;3.50;97.30;;;;;;5041248;28;20417;-82
2021/03/16 04:04:32;;;;;;;11.10;3.70;;;3.40;97.30;;;;;;5040578;28;20466;-81
2021/03/16 04:06:59;;;;;;;12.90;4.00;;;3.30;97.30;;;;;;5040226;28;20903;-81
2021/03/16 04:09:24;;;;;;;11.20;4.07;;;3.30;97.30;;;;;;5041077;28;20267;-81
2021/03/16 04:11:51;;;;;;;4.47;3.40;;;3.30;97.30;;;;;;5044319;28;20524;-81
2021/03/16 04:14:17;;;;;;;10.47;4.23;;;3.30;97.30;;;;;;5043768;28;20181;-81
2021/03/16 04:16:43;;;;;;;9.30;4.47;;;3.30;97.30;;;;;;5043469;28;20852;-81
2021/03/16 04:19:10;;;;;;;9.37;4.67;;;3.20;97.30;;;;;;5043032;28;20446;-82
2021/03/16 04:21:36;;;;;;;12.43;4.53;;;3.10;97.30;;;;;;5040674;28;20415;-80
2021/03/16 04:24:03;;;;;;;9.27;5.70;;;3.00;97.30;;;;;;5041712;28;20458;-82
2021/03/16 04:26:28;;;;;;;6.97;4.97;;;2.90;97.30;;;;;;5040680;28;20457;-82
2021/03/16 04:28:54;;;;;;;18.13;5.67;;;2.90;97.30;;;;;;5039444;28;20479;-81
2021/03/16 04:31:20;;;;;;;11.20;5.90;;;3.00;97.30;;;;;;5041759;28;20176;-82
2021/03/16 04:33:45;;;;;;;12.17;5.77;;;3.00;97.30;;;;;;5042374;28;20183;-82
2021/03/16 04:36:11;;;;;;;12.70;6.20;;;3.10;97.30;;;;;;5041977;28;20184;-82
2021/03/16 04:38:36;;;;;;;19.70;7.37;;;3.20;97.30;;;;;;5042551;28;20176;-81
2021/03/16 04:41:02;;;;;;;20.97;6.73;;;3.40;97.30;;;;;;5041258;28;20264;-81
2021/03/16 04:43:28;;;;;;;27.67;7.20;;;3.50;97.30;;;;;;5042003;28;20186;-82
2021/03/16 04:45:53;;;;;;;25.60;6.77;;;3.60;97.30;;;;;;5040118;28;20214;-81
2021/03/16 04:48:19;;;;;;;13.60;6.30;;;3.60;97.30;;;;;;5042210;28;20267;-81
2021/03/16 04:50:45;;;;;;;16.53;6.53;;;3.70;97.30;;;;;;5041158;28;20612;-82
2021/03/16 04:53:10;;;;;;;22.60;5.80;;;3.70;97.30;;;;;;5041660;28;20285;-81
2021/03/16 04:55:36;;;;;;;24.80;6.97;;;3.70;97.30;;;;;;5041537;28;20680;-81
2021/03/16 04:58:02;;;;;;;18.00;6.33;;;3.70;97.30;;;;;;5041859;28;20231;-83
2021/03/16 05:00:28;;;;;;;20.80;7.37;;;3.70;97.30;;;;;;5042703;28;20216;-83
2021/03/16 05:02:53;;;;;;;19.93;7.37;;;3.60;97.30;;;;;;5043445;28;20172;-82
2021/03/16 05:05:19;;;;;;;17.27;7.30;;;3.60;97.30;;;;;;5041902;28;20906;-81
2021/03/16 05:07:45;;;;;;;24.13;5.80;;;3.60;97.30;;;;;;5042685;28;20176;-82
2021/03/16 05:10:11;;;;;;;17.53;6.20;;;3.50;97.30;;;;;;5039930;28;20562;-80
2021/03/16 05:12:37;;;;;;;18.13;7.20;;;3.50;97.30;;;;;;5040014;28;20535;-81
2021/03/16 05:15:06;;;;;;;13.50;6.40;;;3.50;97.30;;;;;;5041518;28;20514;-82
2021/03/16 05:17:31;;;;;;;9.93;5.77;;;3.60;97.30;;;;;;5036676;28;20205;-82
2021/03/16 05:19:57;;;;;;;17.07;6.40;;;3.50;97.30;;;;;;5036911;28;20443;-83
2021/03/16 05:22:22;;;;;;;14.30;6.20;;;3.50;97.30;;;;;;5035264;28;20618;-82
2021/03/16 05:24:48;;;;;;;12.40;5.80;;;3.60;97.30;;;;;;5036572;28;20259;-82
2021/03/16 05:27:14;;;;;;;17.60;6.80;;;3.60;97.30;;;;;;5036227;28;20633;-81
2021/03/16 05:29:39;;;;;;;15.03;6.67;;;3.60;97.30;;;;;;5036098;28;20235;-82
2021/03/16 05:32:06;;;;;;;19.27;7.17;;;3.60;97.30;;;;;;5036626;28;20172;-82
2021/03/16 05:34:31;;;;;;;19.30;7.07;;;3.50;97.30;;;;;;5037100;28;20187;-83
2021/03/16 05:36:57;;;;;;;18.37;6.10;;;3.50;97.30;;;;;;5037812;28;20455;-82
2021/03/16 05:39:23;;;;;;;13.00;5.60;;;3.50;97.30;;;;;;5037639;28;20203;-82
2021/03/16 05:41:49;;;;;;;14.93;6.60;;;3.50;97.30;;;;;;5037122;28;20287;-82
2021/03/16 05:44:16;;;;;;;21.10;6.67;;;3.50;97.30;;;;;;5038379;28;20169;-82
2021/03/16 05:46:43;;;;;;;14.60;6.50;;;3.50;97.30;;;;;;5037579;28;20429;-82
2021/03/16 05:49:09;;;;;;;14.80;5.70;;;3.50;97.30;;;;;;5037847;28;20485;-82
2021/03/16 05:51:35;;;;;;;17.80;6.13;;;3.40;97.30;;;;;;5039197;28;20491;-83
2021/03/16 05:54:03;;;;;;;12.90;6.43;;;3.40;97.30;;;;;;5023152;28;20418;-83
2021/03/16 05:56:30;;;;;;;9.97;5.80;;;3.40;97.30;;;;;;5040413;28;20408;-83
2021/03/16 05:58:56;;;;;;;17.53;12.73;;;3.40;97.30;;;;;;5037055;28;20442;-83
2021/03/16 06:01:22;;;;;;;15.60;5.80;;;3.50;97.30;;;;;;5036519;28;20411;-82
2021/03/16 06:03:49;;;;;;;15.43;5.57;;;3.50;97.30;;;;;;5037517;28;20419;-82
2021/03/16 06:06:15;;;;;;;9.07;5.50;;;3.50;97.30;;;;;;5039240;28;20197;-83
2021/03/16 06:08:41;;;;;;;11.93;5.30;;;3.50;97.30;;;;;;5039200;28;20399;-83
2021/03/16 06:11:08;;;;;;;13.40;5.80;;;3.60;97.30;;;;;;5038762;28;20829;-82
2021/03/16 06:13:34;;;;;;;8.73;4.60;;;3.60;97.30;;;;;;5036656;28;20411;-82
2021/03/16 06:16:10;;;;;;;11.87;5.27;;;3.60;97.30;;;;;;5038413;28;20537;-82
2021/03/16 06:18:41;;;;;;;16.47;5.43;;;3.70;97.30;;;;;;5037258;28;20497;-83
2021/03/16 06:21:08;;;;;;;15.33;5.70;;;3.70;97.30;;;;;;5039644;28;20399;-83
2021/03/16 06:23:36;;;;;;;12.33;6.13;;;3.70;97.30;;;;;;5038487;28;20959;-83
2021/03/16 06:26:08;;;;;;;13.37;4.97;;;3.70;97.30;;;;;;5037421;28;20473;-83
2021/03/16 06:28:35;;;;;;;11.97;5.67;;;3.70;97.30;;;;;;5038069;28;20470;-82
2021/03/16 06:31:01;;;;;;;8.03;5.10;;;3.80;97.30;;;;;;5038581;28;20430;-83
2021/03/16 06:33:30;;;;;;;11.47;4.80;;;3.80;97.30;;;;;;5038635;28;20450;-83
2021/03/16 06:36:03;;;;;;;9.13;4.73;;;3.80;97.30;;;;;;5041120;28;20407;-83
2021/03/16 06:38:30;;;;;;;18.43;6.13;;;3.80;97.30;;;;;;5038877;28;20505;-82
2021/03/16 06:41:11;;;;;;;9.90;6.13;;;3.80;97.30;;;;;;5038828;28;20420;-83
2021/03/16 06:43:37;;;;;;;12.33;6.00;;;3.80;97.30;;;;;;5040561;28;20407;-83
2021/03/16 06:46:03;;;;;;;18.90;6.80;;;3.80;97.30;;;;;;5040516;28;20499;-82
2021/03/16 06:48:34;;;;;;;15.70;6.57;;;3.70;97.30;;;;;;5020945;28;20497;-82
2021/03/16 06:51:13;;;;;;;21.37;6.53;;;3.70;97.30;;;;;;5019214;28;21024;-83
2021/03/16 06:53:38;;;;;;;22.60;6.47;;;3.70;97.30;;;;;;5033880;28;20422;-81
2021/03/16 06:56:05;;;;;;;12.40;6.63;;;3.70;97.30;;;;;;5053430;23;20529;-81
2021/03/16 06:58:32;;;;;;;16.43;6.40;;;3.70;97.30;;;;;;5015514;28;20208;-86
2021/03/16 07:01:09;;;;;;;17.50;6.20;;;3.90;97.30;;;;;;5032607;28;20426;-86
2021/03/16 07:03:37;;;;;;;21.03;5.67;;;4.00;97.30;;;;;;5014863;28;20424;-85
2021/03/16 07:06:07;;;;;;;17.50;6.20;;;4.20;97.30;;;;;;5012472;28;20424;-87
2021/03/16 07:08:34;;;;;;;15.97;6.30;;;4.30;97.30;;;;;;4995871;28;20424;-87
2021/03/16 07:11:05;;;;;;;11.97;5.33;;;4.30;97.30;;;;;;4995649;28;20412;-85
2021/03/16 07:13:34;;;;;;;8.33;5.17;;;4.30;97.30;;;;;;4995579;28;20447;-85
2021/03/16 07:16:04;;;;;;;18.83;6.97;;;4.20;97.30;;;;;;4995550;28;20440;-85
2021/03/16 07:18:42;;;;;;;9.17;5.33;;;4.20;97.30;;;;;;4996338;28;20459;-86
2021/03/16 07:21:29;;;;;;;15.70;5.50;;;4.10;97.30;;;;;;4995793;28;20443;-88
2021/03/16 07:24:00;;;;;;;15.63;6.13;;;4.10;97.30;;;;;;5013151;28;20842;-85
2021/03/16 07:26:26;;;;;;;11.00;6.10;;;4.00;97.30;;;;;;4994589;28;20440;-86
2021/03/16 07:28:52;;;;;;;15.60;6.10;;;4.00;97.30;;;;;;5011395;28;20423;-85
2021/03/16 07:31:18;;;;;;;11.73;5.40;;;4.00;97.30;;;;;;4993789;28;20799;-85
2021/03/16 07:33:44;;;;;;;16.10;5.60;;;4.10;97.30;;;;;;5011388;28;20412;-85
2021/03/16 07:36:10;;;;;;;12.03;6.00;;;4.10;97.30;;;;;;4993896;28;20432;-85
2021/03/16 07:38:38;;;;;;;16.50;5.73;;;4.10;97.30;;;;;;5011342;28;20475;-84
2021/03/16 07:41:04;;;;;;;12.70;5.57;;;4.20;97.30;;;;;;5009714;28;20832;-86
2021/03/16 07:43:43;;;;;;;16.23;5.87;;;4.30;97.30;;;;;;4985099;28;20417;-86
2021/03/16 07:46:16;;;;;;;10.30;5.20;;;4.40;97.30;;;;;;4995664;28;20436;-85
2021/03/16 07:48:47;;;;;;;11.23;5.13;;;4.30;97.30;;;;;;4998063;28;20416;-88
2021/03/16 07:51:21;;;;;;;11.50;5.93;;;4.30;97.30;;;;;;4997454;28;20423;-88
2021/03/16 07:53:57;;;;;;;15.60;5.27;;;4.40;97.30;;;;;;4999799;28;20498;-86
2021/03/16 07:56:28;;;;;;;20.50;6.57;;;4.60;97.30;;;;;;5015888;28;20445;-88
2021/03/16 07:58:54;;;;;;;12.07;5.50;;;4.80;97.30;;;;;;5032299;28;20454;-85
2021/03/16 08:01:21;;;;;;;12.63;5.00;;;4.90;97.30;;;;;;5033115;28;20419;-89
2021/03/16 08:03:47;;;;;;;8.97;5.80;;;4.80;97.30;;;;;;5016041;28;20506;-86
2021/03/16 08:06:25;;;;;;;8.93;4.60;;;4.80;97.30;;;;;;5015204;28;20439;-86
2021/03/16 08:08:51;;;;;;;10.33;5.43;;;4.80;97.30;;;;;;5015290;28;20940;-86
2021/03/16 08:11:18;;;;;;;12.83;5.50;;;4.70;97.30;;;;;;5015307;28;20420;-88
2021/03/16 08:14:22;;;;;;;11.23;5.47;;;4.80;97.30;;;;;;5016335;28;20444;-85
2021/03/16 08:16:48;;;;;;;9.70;6.33;;;4.90;97.30;;;;;;5003625;28;20470;-87
2021/03/16 08:19:22;;;;;;;15.73;6.03;;;5.10;97.30;;;;;;5016238;28;20436;-84
2021/03/16 08:21:56;;;;;;;8.30;4.63;;;5.10;97.30;;;;;;5016025;28;20681;-86
2021/03/16 08:24:21;;;;;;;15.23;5.97;;;5.10;97.30;;;;;;5015518;28;20438;-86
2021/03/16 08:26:52;;;;;;;16.43;6.10;;;5.20;97.30;;;;;;5015148;28;20432;-86
2021/03/16 08:29:30;;;;;;;11.80;5.70;;;5.30;97.30;;;;;;5014954;28;20312;-85
2021/03/16 08:31:58;;;;;;;10.57;5.93;;;5.30;97.30;;;;;;5013708;28;20435;-85
2021/03/16 08:34:25;;;;;;;15.23;5.93;;;5.20;97.30;;;;;;5013573;28;20849;-86
2021/03/16 08:36:51;;;;;;;15.17;5.80;;;5.40;97.30;;;;;;5014964;28;20451;-86
2021/03/16 08:39:27;;;;;;;13.43;5.60;;;5.50;97.30;;;;;;5014910;28;20458;-85
2021/03/16 08:42:01;;;;;;;17.33;5.60;;;5.40;97.30;;;;;;5013737;28;20481;-86
2021/03/16 08:44:33;;;;;;;14.77;6.90;;;5.40;97.30;;;;;;5013256;28;20515;-85
2021/03/16 08:47:19;;;;;;;11.40;5.27;;;5.60;97.30;;;;;;5005320;28;20448;-85
2021/03/16 08:49:47;;;;;;;13.30;6.67;;;5.80;97.30;;;;;;5009922;28;20871;-86
2021/03/16 08:52:24;;;;;;;21.93;6.70;;;5.70;97.30;;;;;;5012139;28;20564;-86
2021/03/16 08:54:52;;;;;;;18.10;5.50;;;5.60;97.30;;;;;;5014260;28;20408;-86
2021/03/16 08:57:22;;;;;;;16.07;6.13;;;5.50;97.30;;;;;;5014359;28;20895;-85
2021/03/16 08:59:50;;;;;;;12.47;6.33;;;5.50;97.30;;;;;;5015619;28;20514;-86
2021/03/16 09:02:29;;;;;;;16.00;7.20;;;5.60;97.30;;;;;;5014577;28;20424;-86
2021/03/16 09:04:56;;;;;;;13.87;7.30;;;5.80;97.30;;;;;;5013852;28;20424;-88
2021/03/16 09:07:33;;;;;;;20.00;6.87;;;5.80;97.30;;;;;;5013627;28;20456;-86
2021/03/16 09:10:14;;;;;;;16.40;8.00;;;5.70;97.30;;;;;;5013824;28;20506;-85
2021/03/16 09:12:42;;;;;;;15.83;6.50;;;5.70;97.30;;;;;;5014706;28;20428;-86
2021/03/16 09:15:16;;;;;;;11.67;6.03;;;5.60;97.30;;;;;;5014747;28;20799;-87
2021/03/16 09:17:44;;;;;;;12.40;7.10;;;5.60;97.30;;;;;;5015664;28;20467;-86
2021/03/16 09:20:19;;;;;;;13.73;6.50;;;5.60;97.30;;;;;;5014372;28;20515;-86
2021/03/16 09:22:51;;;;;;;13.37;6.50;;;5.60;97.30;;;;;;5014172;28;20420;-86
2021/03/16 09:25:18;;;;;;;22.00;8.60;;;5.60;97.30;;;;;;5015320;28;20916;-86
2021/03/16 09:27:44;;;;;;;26.17;9.67;;;5.70;97.30;;;;;;5013983;28;20538;-86
2021/03/16 09:30:11;;;;;;;17.57;9.13;;;5.70;97.30;;;;;;5013017;28;21190;-86
2021/03/16 09:32:42;;;;;;;19.50;10.03;;;5.80;97.30;;;;;;5012296;28;20428;-86
2021/03/16 09:35:08;;;;;;;14.33;8.63;;;5.90;97.30;;;;;;5012857;28;20432;-87
2021/03/16 09:37:48;;;;;;;19.53;7.73;;;5.90;97.30;;;;;;5013662;28;20489;-86
2021/03/16 09:40:15;;;;;;;18.10;9.00;;;5.90;97.30;;;;;;5012648;28;20424;-87
2021/03/16 09:42:49;;;;;;;18.47;7.27;;;6.00;97.30;;;;;;5012043;28;20422;-86
2021/03/16 09:45:26;;;;;;;12.37;6.57;;;5.80;97.30;;;;;;5011836;28;20428;-85
2021/03/16 09:47:53;;;;;;;14.00;7.93;;;5.70;97.30;;;;;;5012069;28;20440;-86
2021/03/16 09:50:33;;;;;;;12.63;6.97;;;6.00;97.30;;;;;;5012509;28;20427;-87
2021/03/16 09:53:06;;;;;;;11.53;6.50;;;6.10;97.30;;;;;;5014123;28;20416;-86
2021/03/16 09:55:33;;;;;;;10.20;6.63;;;6.00;97.30;;;;;;5010245;28;20452;-86
2021/03/16 09:57:59;;;;;;;13.93;6.97;;;6.00;97.30;;;;;;5013046;28;20725;-87
2021/03/16 10:00:27;;;;;;;13.97;7.30;;;6.30;97.30;;;;;;5012624;28;20454;-86
2021/03/16 10:03:22;;;;;;;21.90;9.03;;;6.30;97.30;;;;;;5012903;28;20423;-86
2021/03/16 10:05:49;;;;;;;18.73;7.13;;;6.10;97.30;;;;;;4986463;28;20515;-85
2021/03/16 10:08:26;;;;;;;17.87;8.10;;;5.90;97.30;;;;;;5012780;28;20413;-86
2021/03/16 10:10:53;;;;;;;19.87;9.17;;;5.80;97.30;;;;;;5015288;28;20719;-84
2021/03/16 10:13:53;;;;;;;14.10;8.53;;;5.90;97.30;;;;;;5014570;28;20419;-86
2021/03/16 10:16:18;;;;;;;18.77;8.70;;;5.80;97.30;;;;;;5004195;28;20458;-85
2021/03/16 10:18:48;;;;;;;16.70;7.10;;;5.80;97.30;;;;;;5013266;28;20464;-84
2021/03/16 10:21:14;;;;;;;16.57;8.13;;;5.80;97.30;;;;;;5013334;28;20181;-86
2021/03/16 10:23:40;;;;;;;13.43;7.50;;;6.00;97.30;;;;;;5011694;28;20994;-87
2021/03/16 10:26:07;;;;;;;15.03;8.57;;;6.30;97.30;;;;;;5012930;28;21012;-87
2021/03/16 10:28:38;;;;;;;22.60;7.63;;;6.30;97.30;;;;;;5013270;28;20701;-86
2021/03/16 10:31:16;;;;;;;14.67;5.77;;;6.30;97.30;;;;;;5012916;28;20459;-86
2021/03/16 10:33:43;;;;;;;18.73;6.50;;;6.50;97.30;;;;;;5011735;28;20428;-85
2021/03/16 10:36:09;;;;;;;19.30;6.47;;;6.50;97.10;;;;;;5012823;28;20439;-85
2021/03/16 10:38:35;;;;;;;14.00;6.87;;;6.50;97.00;;;;;;5013656;28;20506;-86
2021/03/16 10:41:01;;;;;;;16.00;8.00;;;6.50;96.90;;;;;;5011978;28;20987;-85
2021/03/16 10:43:27;;;;;;;14.13;6.17;;;6.30;97.30;;;;;;5011136;28;20420;-86
2021/03/16 10:45:56;;;;;;;19.50;7.13;;;6.20;97.30;;;;;;5011584;28;20467;-86
2021/03/16 10:48:23;;;;;;;11.00;6.20;;;6.10;97.30;;;;;;4998915;28;20181;-87
2021/03/16 10:50:49;;;;;;;18.70;7.10;;;6.10;97.30;;;;;;4992890;28;21004;-86
2021/03/16 10:53:17;;;;;;;10.13;6.40;;;6.20;97.30;;;;;;5011706;28;20511;-86
2021/03/16 10:55:43;;;;;;;10.13;5.33;;;6.30;97.20;;;;;;5010588;28;20189;-85
2021/03/16 10:58:09;;;;;;;13.33;5.03;;;6.50;97.00;;;;;;5008006;28;20517;-86
2021/03/16 11:00:35;;;;;;;17.70;6.63;;;6.70;96.40;;;;;;4993625;28;20472;-85
2021/03/16 11:03:03;;;;;;;14.77;6.77;;;6.70;96.20;;;;;;5001241;28;20427;-85
2021/03/16 11:05:28;;;;;;;16.73;6.23;;;6.50;96.60;;;;;;5014213;28;20428;-84
2021/03/16 11:07:54;;;;;;;8.90;5.63;;;6.40;97.30;;;;;;5015811;28;20527;-85
2021/03/16 11:10:20;;;;;;;10.13;4.80;;;6.40;97.10;;;;;;5014584;28;20185;-85
2021/03/16 11:12:45;;;;;;;16.90;6.97;;;6.50;95.60;;;;;;5015511;28;20177;-85
2021/03/16 11:15:11;;;;;;;11.67;5.50;;;6.40;95.20;;;;;;4998572;28;20185;-84
2021/03/16 11:17:37;;;;;;;16.20;6.10;;;6.40;96.60;;;;;;4998408;28;20227;-86
2021/03/16 11:20:04;;;;;;;13.50;6.93;;;6.50;96.60;;;;;;4987020;28;20181;-85
2021/03/16 11:22:30;;;;;;;14.27;6.17;;;6.50;96.60;;;;;;5008582;28;20173;-86
2021/03/16 11:24:55;;;;;;;23.07;6.20;;;6.50;96.40;;;;;;5016456;28;20447;-84
2021/03/16 11:27:21;;;;;;;13.80;5.00;;;6.50;96.00;;;;;;5009275;28;20204;-85
2021/03/16 11:29:47;;;;;;;9.83;5.50;;;6.60;96.20;;;;;;5009856;28;20432;-85
2021/03/16 11:32:13;;;;;;;9.97;6.10;;;6.60;95.70;;;;;;4996815;28;20182;-83
2021/03/16 11:34:39;;;;;;;8.13;5.20;;;6.50;95.50;;;;;;5016385;28;20185;-85
2021/03/16 11:37:04;;;;;;;12.03;6.63;;;6.50;95.60;;;;;;5014985;28;20478;-85
2021/03/16 11:39:30;;;;;;;17.47;7.20;;;6.60;96.30;;;;;;5015456;28;20175;-84
2021/03/16 11:41:56;;;;;;;17.30;6.77;;;6.70;96.20;;;;;;5014356;28;20173;-86
2021/03/16 11:44:22;;;;;;;15.13;5.80;;;6.60;95.80;;;;;;5013005;28;20420;-86
2021/03/16 11:46:47;;;;;;;11.77;5.80;;;6.60;95.70;;;;;;5012432;28;20197;-85
2021/03/16 11:49:13;;;;;;;15.43;6.23;;;6.70;95.70;;;;;;5013177;28;20184;-88
2021/03/16 11:51:39;;;;;;;10.47;6.43;;;6.70;96.30;;;;;;5012316;28;20227;-85
2021/03/16 11:54:05;;;;;;;13.27;6.20;;;6.80;96.70;;;;;;5014070;28;20189;-86
2021/03/16 11:56:30;;;;;;;11.70;6.00;;;6.80;95.80;;;;;;5023287;23;20220;-77
2021/03/16 11:58:56;;;;;;;11.10;5.17;;;6.90;95.70;;;;;;5030740;28;20481;-78
2021/03/16 12:01:22;;;;;;;11.10;5.50;;;7.10;95.60;;;;;;5032278;28;20195;-78
2021/03/16 12:03:47;;;;;;;12.70;6.20;;;7.10;95.20;;;;;;5043532;28;20831;-76
2021/03/16 12:06:13;;;;;;;14.60;4.87;;;6.90;95.20;;;;;;5051908;28;20168;-77
2021/03/16 12:08:38;;;;;;;13.20;5.53;;;6.80;95.30;;;;;;5029125;28;20267;-79
2021/03/16 12:11:05;;;;;;;9.07;5.43;;;6.90;95.50;;;;;;5029091;28;20709;-80
2021/03/16 12:13:32;;;;;;;8.00;4.70;;;7.00;95.30;;;;;;5038341;28;20227;-77
2021/03/16 12:15:57;;;;;;;16.60;6.77;;;7.10;94.60;;;;;;5049020;28;20982;-79
2021/03/16 12:18:23;;;;;;;18.13;5.70;;;7.10;95.10;;;;;;5050042;28;20562;-80
2021/03/16 12:20:50;;;;;;;17.00;6.53;;;7.10;95.20;;;;;;5048750;28;20669;-79
2021/03/16 12:23:16;;;;;;;10.53;6.23;;;7.00;95.20;;;;;;5047920;28;20679;-77
2021/03/16 12:25:42;;;;;;;17.73;7.07;;;6.90;95.50;;;;;;5050475;28;20426;-76
2021/03/16 12:28:08;;;;;;;13.73;6.13;;;6.90;96.70;;;;;;5050497;28;20426;-76
2021/03/16 12:30:35;;;;;;;13.43;5.50;;;6.90;97.00;;;;;;5049586;28;20516;-77
2021/03/16 12:33:02;;;;;;;12.93;5.50;;;6.90;96.30;;;;;;5051803;28;20505;-77
2021/03/16 12:35:28;;;;;;;14.70;5.40;;;6.90;97.00;;;;;;5051350;28;20494;-78
2021/03/16 12:37:54;;;;;;;17.40;6.00;;;7.00;97.30;;;;;;5052431;28;20561;-77
2021/03/16 12:40:19;;;;;;;14.33;6.20;;;7.10;96.60;;;;;;5052326;28;20172;-77
2021/03/16 12:42:45;;;;;;;12.50;5.90;;;7.10;96.60;;;;;;5052254;28;20187;-77
2021/03/16 12:45:11;;;;;;;16.10;6.40;;;7.10;96.30;;;;;;5052321;28;20187;-77
2021/03/16 12:47:37;;;;;;;24.33;7.50;;;7.00;96.00;;;;;;5052461;28;20171;-75
2021/03/16 12:50:04;;;;;;;14.90;7.00;;;6.90;96.00;;;;;;5052611;28;20788;-77
2021/03/16 12:52:30;;;;;;;19.93;6.67;;;6.80;96.40;;;;;;5051925;28;20570;-77
2021/03/16 12:54:57;;;;;;;10.20;5.70;;;6.90;96.70;;;;;;5051952;28;20418;-77
2021/03/16 12:57:22;;;;;;;13.63;5.80;;;6.90;96.20;;;;;;5058681;22;20228;-73